Time;durP1;ratioP1;P1;durP2;ratioP2;P2;SDS_P1;SDS_P2;PMS_P1;PMS_P2;Temp;Humidity;BMP_temperature;BMP_pressure;BME280_temperature;BME280_humidity;BME280_pressure;Samples;Min_cycle;Max_cycle;Signal;HPM_P1;HPM_P2
2021/01/03 00:00:27;;;;;;;;;;;5.30;95.10;;;;;;5053639;28;19958;-69
2021/01/03 00:02:54;;;;;;;;;;;5.30;95.10;;;;;;5053424;28;20419;-69
2021/01/03 00:05:21;;;;;;;;;;;5.20;95.20;;;;;;5053114;28;19935;-70
2021/01/03 00:07:48;;;;;;;;;;;5.20;95.30;;;;;;5053438;28;20358;-69
2021/01/03 00:10:14;;;;;;;;;;;5.20;95.40;;;;;;5052890;28;20019;-69
2021/01/03 00:12:40;;;;;;;;;;;5.20;95.40;;;;;;5053215;28;19935;-69
2021/01/03 00:15:09;;;;;;;;;;;5.20;95.20;;;;;;5052984;28;20015;-69
2021/01/03 00:17:35;;;;;;;;;;;5.20;95.40;;;;;;5053217;28;19939;-69
2021/01/03 00:20:02;;;;;;;;;;;5.10;95.50;;;;;;5052895;28;19989;-69
2021/01/03 00:22:28;;;;;;;;;;;5.10;95.40;;;;;;5052956;28;20004;-69
2021/01/03 00:24:54;;;;;;;;;;;5.10;95.70;;;;;;5053105;28;19925;-69
2021/01/03 00:27:20;;;;;;;;;;;5.10;95.70;;;;;;5052969;28;20027;-69
2021/01/03 00:29:46;;;;;;;;;;;5.10;95.70;;;;;;5053239;28;20347;-69
2021/01/03 00:32:13;;;;;;;;;;;5.10;95.60;;;;;;5052474;28;19939;-69
2021/01/03 00:34:40;;;;;;;;;;;5.10;95.70;;;;;;5053262;28;19929;-69
2021/01/03 00:37:06;;;;;;;;;;;5.10;95.70;;;;;;5052065;28;19979;-69
2021/01/03 00:39:32;;;;;;;;;;;5.10;95.70;;;;;;5034375;28;19929;-69
2021/01/03 00:41:58;;;;;;;;;;;5.10;95.60;;;;;;5033011;28;19935;-69
2021/01/03 00:44:24;;;;;;;;;;;5.10;95.50;;;;;;5032655;28;19932;-69
2021/01/03 00:46:51;;;;;;;;;;;5.10;95.40;;;;;;5032899;28;19936;-69
2021/01/03 00:49:18;;;;;;;;;;;5.10;95.70;;;;;;5032530;28;19925;-70
2021/01/03 00:51:44;;;;;;;;;;;5.10;95.80;;;;;;5032844;28;19925;-69
2021/01/03 00:54:10;;;;;;;;;;;5.10;95.80;;;;;;5032818;28;19925;-69
2021/01/03 00:56:37;;;;;;;;;;;5.10;95.80;;;;;;5032921;28;19933;-69
2021/01/03 00:59:03;;;;;;;;;;;5.20;95.70;;;;;;5032607;28;19935;-69
2021/01/03 01:01:29;;;;;;;;;;;5.10;95.40;;;;;;5032926;28;19929;-69
2021/01/03 01:03:55;;;;;;;;;;;5.10;95.50;;;;;;5032797;28;20359;-69
2021/01/03 01:06:23;;;;;;;;;;;5.10;95.60;;;;;;5032232;28;19925;-69
2021/01/03 01:08:51;;;;;;;;;;;5.10;95.70;;;;;;5032876;28;19944;-69
2021/01/03 01:11:17;;;;;;;;;;;5.10;95.80;;;;;;5032235;28;20012;-69
2021/01/03 01:13:43;;;;;;;;;;;5.10;95.80;;;;;;5033029;28;19994;-69
2021/01/03 01:16:10;;;;;;;;;;;5.10;95.60;;;;;;5032232;28;19931;-69
2021/01/03 01:18:36;;;;;;;;;;;5.10;95.60;;;;;;5032668;28;19978;-69
2021/01/03 01:21:03;;;;;;;;;;;5.20;95.60;;;;;;5032705;28;20333;-69
2021/01/03 01:23:30;;;;;;;;;;;5.10;95.50;;;;;;5040611;28;20062;-69
2021/01/03 01:25:56;;;;;;;;;;;5.10;95.20;;;;;;5032547;28;19925;-69
2021/01/03 01:28:23;;;;;;;;;;;5.10;95.40;;;;;;5032335;28;19929;-69
2021/01/03 01:30:49;;;;;;;;;;;5.10;95.10;;;;;;5039256;28;19936;-69
2021/01/03 01:33:15;;;;;;;;;;;5.10;95.10;;;;;;5051982;28;20008;-69
2021/01/03 01:35:41;;;;;;;;;;;5.10;95.20;;;;;;5052527;28;19925;-69
2021/01/03 01:38:07;;;;;;;;;;;5.10;95.10;;;;;;5045200;28;19925;-69
2021/01/03 01:40:37;;;;;;;;;;;5.10;95.20;;;;;;5032233;28;19929;-69
2021/01/03 01:43:04;;;;;;;;;;;5.00;95.30;;;;;;5032501;28;20355;-69
2021/01/03 01:45:32;;;;;;;;;;;5.00;95.20;;;;;;5031997;28;20343;-69
2021/01/03 01:48:00;;;;;;;;;;;5.10;95.30;;;;;;5033720;28;19935;-69
2021/01/03 01:50:30;;;;;;;;;;;5.10;95.20;;;;;;5035646;28;20424;-69
2021/01/03 01:52:59;;;;;;;;;;;5.10;95.20;;;;;;5036107;28;19933;-69
2021/01/03 01:55:27;;;;;;;;;;;5.10;95.20;;;;;;5035528;28;19925;-69
2021/01/03 01:57:59;;;;;;;;;;;5.10;95.00;;;;;;5036256;28;19951;-69
2021/01/03 02:00:27;;;;;;;;;;;5.20;95.10;;;;;;5035366;28;19935;-69
2021/01/03 02:02:57;;;;;;;;;;;5.20;95.00;;;;;;5035799;28;19925;-69
2021/01/03 02:05:25;;;;;;;;;;;5.10;94.90;;;;;;5035554;28;20058;-69
2021/01/03 02:07:54;;;;;;;;;;;5.10;95.00;;;;;;5035985;28;19947;-69
2021/01/03 02:10:22;;;;;;;;;;;5.10;94.90;;;;;;5035487;28;20253;-69
2021/01/03 02:12:50;;;;;;;;;;;5.00;94.90;;;;;;5035939;28;19925;-69
2021/01/03 02:15:19;;;;;;;;;;;5.10;95.00;;;;;;5051437;28;19977;-69
2021/01/03 02:17:45;;;;;;;;;;;5.00;94.70;;;;;;5055496;28;19932;-69
2021/01/03 02:20:12;;;;;;;;;;;5.00;95.00;;;;;;5055189;28;20347;-69
2021/01/03 02:22:41;;;;;;;;;;;5.00;95.00;;;;;;5055624;28;19974;-69
2021/01/03 02:25:10;;;;;;;;;;;4.90;94.90;;;;;;5055356;28;20359;-69
2021/01/03 02:27:40;;;;;;;;;;;4.90;95.00;;;;;;5063417;28;20352;-68
2021/01/03 02:30:07;;;;;;;;;;;5.00;95.20;;;;;;5055265;28;19925;-70
2021/01/03 02:32:35;;;;;;;;;;;4.90;95.00;;;;;;5054804;28;19946;-70
2021/01/03 02:35:02;;;;;;;;;;;4.90;94.70;;;;;;5055426;28;19962;-70
2021/01/03 02:37:32;;;;;;;;;;;4.80;94.90;;;;;;5053411;28;20078;-70
2021/01/03 02:40:00;;;;;;;;;;;4.70;95.00;;;;;;5035279;28;20023;-70
2021/01/03 02:42:28;;;;;;;;;;;4.70;95.30;;;;;;5035032;28;19929;-70
2021/01/03 02:44:55;;;;;;;;;;;4.70;95.40;;;;;;5034794;28;19925;-69
2021/01/03 02:47:24;;;;;;;;;;;4.60;95.40;;;;;;5034454;28;20374;-70
2021/01/03 02:49:50;;;;;;;;;;;4.60;95.60;;;;;;5038468;28;19924;-70
2021/01/03 02:52:19;;;;;;;;;;;4.60;95.70;;;;;;5054463;28;19924;-70
2021/01/03 02:54:45;;;;;;;;;;;4.60;95.70;;;;;;5055059;28;20236;-70
2021/01/03 02:57:11;;;;;;;;;;;4.60;95.80;;;;;;5054690;28;19982;-69
2021/01/03 02:59:38;;;;;;;;;;;4.60;95.60;;;;;;5054063;28;20667;-69
2021/01/03 03:02:05;;;;;;;;;;;4.70;95.70;;;;;;5054672;28;20367;-70
2021/01/03 03:04:31;;;;;;;;;;;4.70;95.80;;;;;;5054380;28;19928;-70
2021/01/03 03:06:57;;;;;;;;;;;4.70;95.90;;;;;;5054526;28;20019;-70
2021/01/03 03:09:23;;;;;;;;;;;4.80;95.70;;;;;;5054480;28;19925;-70
2021/01/03 03:11:49;;;;;;;;;;;4.80;95.70;;;;;;5054380;28;20012;-70
2021/01/03 03:14:16;;;;;;;;;;;4.80;95.50;;;;;;5054139;28;20385;-70
2021/01/03 03:16:43;;;;;;;;;;;4.90;95.50;;;;;;5054228;28;19984;-70
2021/01/03 03:19:09;;;;;;;;;;;4.80;95.40;;;;;;5054403;28;19925;-70
2021/01/03 03:21:35;;;;;;;;;;;4.80;95.50;;;;;;5053934;28;19939;-70
2021/01/03 03:24:02;;;;;;;;;;;4.80;95.30;;;;;;5054500;28;20035;-70
2021/01/03 03:26:28;;;;;;;;;;;4.80;95.40;;;;;;5053537;28;19958;-70
2021/01/03 03:28:54;;;;;;;;;;;4.90;95.50;;;;;;5054349;28;20011;-70
2021/01/03 03:31:25;;;;;;;;;;;4.90;95.50;;;;;;5053577;28;20435;-70
2021/01/03 03:33:52;;;;;;;;;;;5.00;95.50;;;;;;5054239;28;19929;-70
2021/01/03 03:36:19;;;;;;;;;;;5.00;95.50;;;;;;5053739;28;19925;-70
2021/01/03 03:38:45;;;;;;;;;;;5.00;95.40;;;;;;5042424;28;20050;-70
2021/01/03 03:41:16;;;;;;;;;;;5.10;95.30;;;;;;5033958;28;19931;-70
2021/01/03 03:43:42;;;;;;;;;;;5.10;95.10;;;;;;5034057;28;19925;-70
2021/01/03 03:46:09;;;;;;;;;;;5.10;95.10;;;;;;5033841;28;20383;-70
2021/01/03 03:48:35;;;;;;;;;;;5.20;95.10;;;;;;5033561;28;19925;-70
2021/01/03 03:51:02;;;;;;;;;;;5.10;94.90;;;;;;5033852;28;19952;-70
2021/01/03 03:53:28;;;;;;;;;;;5.10;95.10;;;;;;5033470;28;19935;-70
2021/01/03 03:55:54;;;;;;;;;;;5.10;94.90;;;;;;5033845;28;19925;-70
2021/01/03 03:58:23;;;;;;;;;;;5.10;94.90;;;;;;5032882;28;21311;-70
2021/01/03 04:00:56;;;;;;;;;;;5.20;94.90;;;;;;5033878;28;19925;-70
2021/01/03 04:03:23;;;;;;;;;;;5.10;94.70;;;;;;5033102;28;19933;-69
2021/01/03 04:05:49;;;;;;;;;;;5.10;94.70;;;;;;5033640;28;19949;-70
2021/01/03 04:08:16;;;;;;;;;;;5.20;94.90;;;;;;5033632;28;19925;-70
2021/01/03 04:10:42;;;;;;;;;;;5.20;94.60;;;;;;5032636;28;19925;-70
2021/01/03 04:13:09;;;;;;;;;;;5.10;94.70;;;;;;5033796;28;19925;-70
2021/01/03 04:15:36;;;;;;;;;;;5.20;94.80;;;;;;5033005;28;20358;-70
2021/01/03 04:18:02;;;;;;;;;;;5.20;94.80;;;;;;5033401;28;19932;-70
2021/01/03 04:20:28;;;;;;;;;;;5.20;94.90;;;;;;5033186;28;19929;-70
2021/01/03 04:22:55;;;;;;;;;;;5.20;94.70;;;;;;5033335;28;19925;-70
2021/01/03 04:25:22;;;;;;;;;;;5.30;94.60;;;;;;5032908;28;20008;-70
2021/01/03 04:27:48;;;;;;;;;;;5.30;94.50;;;;;;5033388;28;19987;-70
2021/01/03 04:30:16;;;;;;;;;;;5.30;94.50;;;;;;5035242;28;19925;-70
2021/01/03 04:32:42;;;;;;;;;;;5.30;94.60;;;;;;5052874;28;19925;-70
2021/01/03 04:35:09;;;;;;;;;;;5.30;94.70;;;;;;5052966;28;19924;-70
2021/01/03 04:37:35;;;;;;;;;;;5.30;94.50;;;;;;5050399;28;19925;-70
2021/01/03 04:40:02;;;;;;;;;;;5.30;94.60;;;;;;5033420;28;19978;-70
2021/01/03 04:42:32;;;;;;;;;;;5.30;94.70;;;;;;5032671;28;19935;-70
2021/01/03 04:45:00;;;;;;;;;;;5.30;94.80;;;;;;5032986;28;19936;-70
2021/01/03 04:47:28;;;;;;;;;;;5.40;94.90;;;;;;5032759;28;19998;-70
2021/01/03 04:49:59;;;;;;;;;;;5.40;94.50;;;;;;5032743;28;19925;-70
2021/01/03 04:52:39;;;;;;;;;;;5.40;94.60;;;;;;5032763;28;19936;-70
2021/01/03 04:55:10;;;;;;;;;;;5.50;94.70;;;;;;5032962;28;19925;-70
2021/01/03 04:57:41;;;;;;;;;;;5.50;94.50;;;;;;5032679;28;20004;-70
2021/01/03 05:00:08;;;;;;;;;;;5.50;94.50;;;;;;5031237;28;19925;-70
2021/01/03 05:02:45;;;;;;;;;;;5.50;94.30;;;;;;5043356;28;20244;-70
2021/01/03 05:05:22;;;;;;;;;;;5.50;94.20;;;;;;5051834;28;19925;-70
2021/01/03 05:07:52;;;;;;;;;;;5.50;94.40;;;;;;5059975;28;19925;-70
2021/01/03 05:10:21;;;;;;;;;;;5.50;94.40;;;;;;5052664;28;20050;-70
2021/01/03 05:12:58;;;;;;;;;;;5.50;94.50;;;;;;5052114;28;19932;-70
2021/01/03 05:15:26;;;;;;;;;;;5.50;94.50;;;;;;5052242;28;20386;-70
2021/01/03 05:17:53;;;;;;;;;;;5.50;94.40;;;;;;5049420;28;19924;-70
2021/01/03 05:20:19;;;;;;;;;;;5.50;94.50;;;;;;5052052;28;19978;-70
2021/01/03 05:22:46;;;;;;;;;;;5.40;94.50;;;;;;5053126;28;19925;-70
2021/01/03 05:25:14;;;;;;;;;;;5.40;94.80;;;;;;5056310;28;19928;-70
2021/01/03 05:27:40;;;;;;;;;;;5.40;94.90;;;;;;5056014;28;19925;-70
2021/01/03 05:30:15;;;;;;;;;;;5.40;95.20;;;;;;5056418;28;20009;-70
2021/01/03 05:32:42;;;;;;;;;;;5.40;95.80;;;;;;5050608;28;19925;-70
2021/01/03 05:35:19;;;;;;;;;;;5.40;95.50;;;;;;5048133;28;19925;-70
2021/01/03 05:37:45;;;;;;;;;;;5.30;95.30;;;;;;5049306;28;19935;-70
2021/01/03 05:40:18;;;;;;;;;;;5.40;95.60;;;;;;5055987;28;19937;-70
2021/01/03 05:42:45;;;;;;;;;;;5.40;95.70;;;;;;5055215;28;20350;-70
2021/01/03 05:45:12;;;;;;;;;;;5.30;95.70;;;;;;5055826;28;19925;-70
2021/01/03 05:47:40;;;;;;;;;;;5.30;95.80;;;;;;5055877;28;20267;-70
2021/01/03 05:50:09;;;;;;;;;;;5.30;95.90;;;;;;5055755;28;19950;-70
2021/01/03 05:52:36;;;;;;;;;;;5.30;96.20;;;;;;5055561;28;20355;-70
2021/01/03 05:55:03;;;;;;;;;;;5.40;96.00;;;;;;5056049;28;19931;-70
2021/01/03 05:57:30;;;;;;;;;;;5.30;95.90;;;;;;5055956;28;20264;-70
2021/01/03 05:59:57;;;;;;;;;;;5.30;95.90;;;;;;5063216;28;20770;-70
2021/01/03 06:02:25;;;;;;;;;;;5.30;96.10;;;;;;5055677;28;19924;-70
2021/01/03 06:05:04;;;;;;;;;;;5.20;96.30;;;;;;5055478;28;19925;-70
2021/01/03 06:07:31;;;;;;;;;;;5.20;96.40;;;;;;5041160;28;19925;-70
2021/01/03 06:09:57;;;;;;;;;;;5.20;96.50;;;;;;5041210;28;19931;-70
2021/01/03 06:12:24;;;;;;;;;;;5.30;96.50;;;;;;5055599;28;19931;-70
2021/01/03 06:14:52;;;;;;;;;;;5.20;96.60;;;;;;5055036;28;20244;-70
2021/01/03 06:17:24;;;;;;;;;;;5.20;96.80;;;;;;5055295;28;19982;-70
2021/01/03 06:19:51;;;;;;;;;;;5.20;96.90;;;;;;5055140;28;19924;-70
2021/01/03 06:22:23;;;;;;;;;;;5.30;96.90;;;;;;5055364;28;19925;-70
2021/01/03 06:24:49;;;;;;;;;;;5.30;96.80;;;;;;5054900;28;19935;-70
2021/01/03 06:27:26;;;;;;;;;;;5.30;96.90;;;;;;5055427;28;19947;-70
2021/01/03 06:29:59;;;;;;;;;;;5.20;96.90;;;;;;5054846;28;19928;-70
2021/01/03 06:32:33;;;;;;;;;;;5.10;97.10;;;;;;5047060;28;19982;-70
2021/01/03 06:35:01;;;;;;;;;;;5.10;97.20;;;;;;5054284;28;20689;-70
2021/01/03 06:37:34;;;;;;;;;;;5.20;97.30;;;;;;5053946;28;19924;-70
2021/01/03 06:40:05;;;;;;;;;;;5.20;97.20;;;;;;5054881;28;20599;-70
2021/01/03 06:42:47;;;;;;;;;;;5.20;97.20;;;;;;5054822;28;19929;-70
2021/01/03 06:45:33;;;;;;;;;;;5.20;97.20;;;;;;5055374;28;19947;-70
2021/01/03 06:48:14;;;;;;;;;;;5.30;97.10;;;;;;5066009;28;19935;-70
2021/01/03 06:50:56;;;;;;;;;;;5.20;97.30;;;;;;5054690;28;19931;-70
2021/01/03 06:53:48;;;;;;;;;;;5.20;97.10;;;;;;5063011;28;20359;-70
2021/01/03 06:56:26;;;;;;;;;;;5.20;97.20;;;;;;5041808;28;19925;-70
2021/01/03 06:59:01;;;;;;;;;;;5.10;97.30;;;;;;5054938;28;19932;-70
2021/01/03 07:01:29;;;;;;;;;;;5.10;97.40;;;;;;5056523;28;19935;-70
2021/01/03 07:03:56;;;;;;;;;;;5.10;97.30;;;;;;5054279;28;19989;-70
2021/01/03 07:06:29;;;;;;;;;;;5.10;97.30;;;;;;5047494;28;19929;-70
2021/01/03 07:08:56;;;;;;;;;;;5.10;97.30;;;;;;5048283;28;19932;-70
2021/01/03 07:11:41;;;;;;;;;;;5.00;97.30;;;;;;5062221;28;19929;-70
2021/01/03 07:14:08;;;;;;;;;;;5.00;97.50;;;;;;5053928;28;19925;-70
2021/01/03 07:16:45;;;;;;;;;;;5.10;97.60;;;;;;5054158;28;20019;-70
2021/01/03 07:19:13;;;;;;;;;;;5.00;97.70;;;;;;5049398;28;20027;-70
2021/01/03 07:21:44;;;;;;;;;;;5.00;98.10;;;;;;5054103;28;19931;-69
2021/01/03 07:24:28;;;;;;;;;;;4.90;98.10;;;;;;5053719;28;20015;-70
2021/01/03 07:27:13;;;;;;;;;;;4.90;98.30;;;;;;5054023;28;19937;-69
2021/01/03 07:29:48;;;;;;;;;;;4.90;98.80;;;;;;5053892;28;20429;-70
2021/01/03 07:32:16;;;;;;;;;;;4.90;98.90;;;;;;5053675;28;19924;-70
2021/01/03 07:34:42;;;;;;;;;;;4.90;98.70;;;;;;5053794;28;20008;-70
2021/01/03 07:37:14;;;;;;;;;;;4.90;99.00;;;;;;5053751;28;19933;-70
2021/01/03 07:39:56;;;;;;;;;;;4.90;99.00;;;;;;5049215;28;19955;-70
2021/01/03 07:42:24;;;;;;;;;;;4.90;98.90;;;;;;5053313;28;19958;-70
2021/01/03 07:44:51;;;;;;;;;;;4.80;98.80;;;;;;5040885;28;20011;-70
2021/01/03 07:47:37;;;;;;;;;;;4.80;98.90;;;;;;5052942;28;19950;-70
2021/01/03 07:50:20;;;;;;;;;;;4.80;99.00;;;;;;5053462;28;19933;-69
2021/01/03 07:52:46;;;;;;;;;;;4.90;99.00;;;;;;5053377;28;19964;-69
2021/01/03 07:55:15;;;;;;;;;;;4.90;99.10;;;;;;5053579;28;19939;-69
2021/01/03 07:57:42;;;;;;;;;;;4.80;99.20;;;;;;5053057;28;19933;-69
2021/01/03 08:00:08;;;;;;;;;;;4.80;99.50;;;;;;5049866;28;19936;-70
2021/01/03 08:02:35;;;;;;;;;;;4.90;99.40;;;;;;5052864;28;20027;-69
2021/01/03 08:05:05;;;;;;;;;;;4.90;99.50;;;;;;5048750;28;19935;-69
2021/01/03 08:07:36;;;;;;;;;;;4.90;99.60;;;;;;5038300;28;19993;-69
2021/01/03 08:10:05;;;;;;;;;;;4.90;99.50;;;;;;5043609;28;20421;-69
2021/01/03 08:12:47;;;;;;;;;;;;;;;;;;;;;
2021/01/03 08:15:24;;;;;;;;;;;4.90;99.90;;;;;;5052671;28;20385;-69
2021/01/03 08:17:57;;;;;;;;;;;4.90;99.90;;;;;;5061254;28;20672;-70
2021/01/03 08:20:30;;;;;;;;;;;4.90;99.90;;;;;;5052958;28;19924;-70
2021/01/03 08:23:13;;;;;;;;;;;4.90;99.90;;;;;;5059001;28;20458;-70
2021/01/03 08:25:49;;;;;;;;;;;4.90;99.90;;;;;;5052440;28;19979;-70
2021/01/03 08:28:18;;;;;;;;;;;4.90;99.90;;;;;;5052838;28;19924;-70
2021/01/03 08:30:58;;;;;;;;;;;4.80;99.90;;;;;;5046235;28;20081;-70
2021/01/03 08:33:33;;;;;;;;;;;4.80;99.90;;;;;;5052748;28;19925;-70
2021/01/03 08:36:13;;;;;;;;;;;4.80;99.90;;;;;;5060968;28;20655;-70
2021/01/03 08:38:39;;;;;;;;;;;4.70;99.90;;;;;;5050969;28;19932;-68
2021/01/03 08:41:07;;;;;;;;;;;4.80;99.90;;;;;;5052694;28;19985;-68
2021/01/03 08:43:35;;;;;;;;;;;4.80;99.90;;;;;;5048694;28;19932;-69
2021/01/03 08:46:02;;;;;;;;;;;4.70;99.90;;;;;;5049262;28;19958;-68
2021/01/03 08:48:28;;;;;;;;;;;4.80;99.90;;;;;;5052707;28;19932;-68
2021/01/03 08:51:01;;;;;;;;;;;4.80;99.90;;;;;;5052269;28;19935;-68
2021/01/03 08:53:28;;;;;;;;;;;4.80;99.90;;;;;;5052754;28;19969;-69
2021/01/03 08:56:01;;;;;;;;;;;4.80;99.90;;;;;;5052043;28;20330;-69
2021/01/03 08:58:33;;;;;;;;;;;4.80;99.90;;;;;;5059006;28;19925;-69
2021/01/03 09:01:01;;;;;;;;;;;4.80;99.90;;;;;;5053199;28;19931;-69
2021/01/03 09:03:27;;;;;;;;;;;4.90;99.90;;;;;;5054763;28;19924;-69
2021/01/03 09:05:54;;;;;;;;;;;4.80;99.90;;;;;;5056440;28;19925;-69
2021/01/03 09:08:25;;;;;;;;;;;4.80;99.90;;;;;;5049243;28;19925;-68
2021/01/03 09:10:52;;;;;;;;;;;4.80;99.90;;;;;;5048486;28;19931;-69
2021/01/03 09:13:21;;;;;;;;;;;4.80;99.90;;;;;;5059351;28;19935;-68
2021/01/03 09:15:55;;;;;;;;;;;4.80;99.90;;;;;;5058751;28;19925;-68
2021/01/03 09:18:27;;;;;;;;;;;4.80;99.90;;;;;;5059156;28;19925;-69
2021/01/03 09:20:56;;;;;;;;;;;4.80;99.90;;;;;;5058766;28;20397;-68
2021/01/03 09:23:25;;;;;;;;;;;4.80;99.90;;;;;;5059271;28;20397;-69
2021/01/03 09:25:53;;;;;;;;;;;4.80;99.90;;;;;;5057188;28;19924;-69
2021/01/03 09:28:22;;;;;;;;;;;4.80;99.90;;;;;;5059099;28;19926;-69
2021/01/03 09:30:48;;;;;;;;;;;4.80;99.90;;;;;;5051819;28;19979;-69
2021/01/03 09:33:21;;;;;;;;;;;4.80;99.90;;;;;;5056668;28;19925;-70
2021/01/03 09:36:01;;;;;;;;;;;4.80;99.90;;;;;;5058652;28;20367;-70
2021/01/03 09:38:55;;;;;;;;;;;4.80;99.90;;;;;;5054105;28;20016;-70
2021/01/03 09:41:41;;;;;;;;;;;4.70;99.90;;;;;;5058709;28;19925;-71
2021/01/03 09:44:12;;;;;;;;;;;4.70;99.90;;;;;;5058736;28;19924;-71
2021/01/03 09:46:41;;;;;;;;;;;4.70;99.90;;;;;;5058405;28;19978;-71
2021/01/03 09:49:12;;;;;;;;;;;4.70;99.90;;;;;;5058967;28;19925;-71
2021/01/03 09:51:49;;;;;;;;;;;4.70;99.90;;;;;;5056926;28;19935;-71
2021/01/03 09:54:17;;;;;;;;;;;4.70;99.90;;;;;;5058921;28;20180;-71
2021/01/03 09:56:45;;;;;;;;;;;4.70;99.90;;;;;;5058490;28;19929;-71
2021/01/03 09:59:12;;;;;;;;;;;4.70;99.90;;;;;;5058799;28;19932;-71
2021/01/03 10:01:39;;;;;;;;;;;4.60;99.90;;;;;;5054698;28;19925;-71
2021/01/03 10:04:12;;;;;;;;;;;4.60;99.90;;;;;;5044759;28;19928;-71
2021/01/03 10:06:39;;;;;;;;;;;4.60;99.90;;;;;;5046042;28;20023;-71
2021/01/03 10:09:10;;;;;;;;;;;4.60;99.90;;;;;;5050667;28;19935;-71
2021/01/03 10:11:37;;;;;;;;;;;4.60;99.90;;;;;;5055235;28;20011;-71
2021/01/03 10:14:04;;;;;;;;;;;4.60;99.90;;;;;;5055612;28;19925;-71
2021/01/03 10:16:32;;;;;;;;;;;4.60;99.90;;;;;;5054790;28;20015;-71
2021/01/03 10:18:58;;;;;;;;;;;4.50;99.90;;;;;;5055561;28;20309;-71
2021/01/03 10:21:30;;;;;;;;;;;4.50;99.90;;;;;;5054913;28;19925;-71
2021/01/03 10:23:57;;;;;;;;;;;4.50;99.90;;;;;;5045160;28;20365;-71
2021/01/03 10:26:25;;;;;;;;;;;4.50;99.90;;;;;;5054784;28;20287;-71
2021/01/03 10:28:52;;;;;;;;;;;4.60;99.90;;;;;;5055183;28;20007;-70
2021/01/03 10:31:19;;;;;;;;;;;4.50;99.90;;;;;;5055023;28;19932;-70
2021/01/03 10:33:45;;;;;;;;;;;4.50;99.90;;;;;;5054864;28;19925;-70
2021/01/03 10:36:15;;;;;;;;;;;4.50;99.90;;;;;;5055045;28;20000;-70
2021/01/03 10:38:41;;;;;;;;;;;4.50;99.90;;;;;;5046509;28;19925;-70
2021/01/03 10:41:07;;;;;;;;;;;4.50;99.90;;;;;;5055128;28;20357;-70
2021/01/03 10:43:35;;;;;;;;;;;4.40;99.90;;;;;;5050184;28;19925;-70
2021/01/03 10:46:01;;;;;;;;;;;4.50;99.90;;;;;;5048775;28;19928;-70
2021/01/03 10:48:27;;;;;;;;;;;4.50;99.90;;;;;;5054460;28;19924;-70
2021/01/03 10:50:53;;;;;;;;;;;4.50;99.90;;;;;;5054507;28;19924;-70
2021/01/03 10:53:19;;;;;;;;;;;4.50;99.90;;;;;;5054855;28;19947;-70
2021/01/03 10:55:46;;;;;;;;;;;4.40;99.90;;;;;;5054369;28;19933;-70
2021/01/03 10:58:12;;;;;;;;;;;4.40;99.90;;;;;;5054750;28;20366;-70
2021/01/03 11:00:39;;;;;;;;;;;4.40;99.90;;;;;;5054173;28;19924;-70
2021/01/03 11:03:06;;;;;;;;;;;4.40;99.90;;;;;;5054437;28;19928;-71
2021/01/03 11:05:32;;;;;;;;;;;4.50;99.90;;;;;;5050768;28;20413;-70
2021/01/03 11:07:59;;;;;;;;;;;4.40;99.90;;;;;;5043583;28;19925;-70
2021/01/03 11:10:25;;;;;;;;;;;4.50;99.90;;;;;;5054388;28;19963;-71
2021/01/03 11:12:52;;;;;;;;;;;4.50;99.90;;;;;;5054185;28;20709;-70
2021/01/03 11:15:18;;;;;;;;;;;4.60;99.90;;;;;;5054413;28;20266;-70
2021/01/03 11:17:45;;;;;;;;;;;4.50;99.90;;;;;;5053879;28;19947;-70
2021/01/03 11:20:11;;;;;;;;;;;4.50;99.90;;;;;;5052982;28;20066;-71
2021/01/03 11:22:38;;;;;;;;;;;4.60;99.90;;;;;;5054041;28;19955;-70
2021/01/03 11:25:04;;;;;;;;;;;4.60;99.90;;;;;;5053872;28;20009;-70
2021/01/03 11:27:30;;;;;;;;;;;4.60;99.90;;;;;;5042980;28;19924;-71
2021/01/03 11:29:57;;;;;;;;;;;4.60;99.90;;;;;;5054111;28;20003;-70
2021/01/03 11:32:24;;;;;;;;;;;4.60;99.90;;;;;;5042990;28;20436;-70
2021/01/03 11:34:52;;;;;;;;;;;4.70;99.90;;;;;;5053531;28;20031;-70
2021/01/03 11:37:20;;;;;;;;;;;4.60;99.90;;;;;;5053781;28;19981;-71
2021/01/03 11:39:46;;;;;;;;;;;4.60;99.90;;;;;;5049610;28;19936;-70
2021/01/03 11:42:15;;;;;;;;;;;4.70;99.90;;;;;;5053805;28;19929;-70
2021/01/03 11:44:42;;;;;;;;;;;4.70;99.90;;;;;;5042284;28;20039;-70
2021/01/03 11:47:10;;;;;;;;;;;4.70;99.90;;;;;;5053274;28;19935;-71
2021/01/03 11:49:37;;;;;;;;;;;4.80;99.90;;;;;;5049540;28;19932;-70
2021/01/03 11:52:07;;;;;;;;;;;4.80;99.90;;;;;;5052924;28;20374;-71
2021/01/03 11:54:34;;;;;;;;;;;4.80;99.90;;;;;;5053024;28;19935;-71
2021/01/03 11:57:00;;;;;;;;;;;4.80;99.90;;;;;;5053561;28;19925;-70
2021/01/03 11:59:27;;;;;;;;;;;4.90;99.90;;;;;;5053364;28;19925;-70
2021/01/03 12:01:56;;;;;;;;;;;4.90;99.90;;;;;;5052933;28;19924;-70
2021/01/03 12:04:24;;;;;;;;;;;4.90;99.90;;;;;;5053332;28;20106;-70
2021/01/03 12:06:54;;;;;;;;;;;4.90;99.90;;;;;;5052718;28;19943;-70
2021/01/03 12:09:24;;;;;;;;;;;4.90;99.90;;;;;;5050371;28;19925;-71
2021/01/03 12:11:56;;;;;;;;;;;4.80;99.90;;;;;;5049449;28;19932;-71
2021/01/03 12:14:22;;;;;;;;;;;4.90;99.90;;;;;;5053059;28;20385;-71
2021/01/03 12:16:52;;;;;;;;;;;4.90;99.90;;;;;;5052244;28;20259;-71
2021/01/03 12:19:19;;;;;;;;;;;4.90;99.90;;;;;;5052339;28;19925;-71
2021/01/03 12:21:45;;;;;;;;;;;4.90;99.90;;;;;;5052389;28;20124;-71
2021/01/03 12:24:11;;;;;;;;;;;4.80;99.90;;;;;;5052990;28;19947;-71
2021/01/03 12:26:40;;;;;;;;;;;4.80;99.90;;;;;;5050574;28;20417;-71
2021/01/03 12:29:08;;;;;;;;;;;4.80;99.90;;;;;;5052841;28;19936;-71
2021/01/03 12:31:35;;;;;;;;;;;4.80;99.90;;;;;;5052144;28;19935;-71
2021/01/03 12:34:01;;;;;;;;;;;4.80;99.90;;;;;;5052956;28;19951;-71
2021/01/03 12:36:27;;;;;;;;;;;4.80;99.90;;;;;;5052683;28;19993;-71
2021/01/03 12:38:53;;;;;;;;;;;4.80;99.90;;;;;;5052220;28;19936;-70
2021/01/03 12:41:20;;;;;;;;;;;4.80;99.90;;;;;;5052770;28;19978;-71
2021/01/03 12:43:47;;;;;;;;;;;4.90;99.90;;;;;;5052072;28;20411;-71
2021/01/03 12:46:14;;;;;;;;;;;4.80;99.90;;;;;;5052902;28;19974;-71
2021/01/03 12:48:40;;;;;;;;;;;4.70;99.90;;;;;;5052208;28;19925;-71
2021/01/03 12:51:07;;;;;;;;;;;4.70;99.90;;;;;;5052352;28;19925;-71
2021/01/03 12:53:33;;;;;;;;;;;4.70;99.90;;;;;;5048008;28;19932;-71
2021/01/03 12:55:59;;;;;;;;;;;4.70;99.90;;;;;;5054935;28;20427;-71
2021/01/03 12:58:25;;;;;;;;;;;4.70;99.90;;;;;;5050099;28;20278;-71
2021/01/03 13:00:52;;;;;;;;;;;4.70;99.90;;;;;;5051328;28;19925;-71
2021/01/03 13:03:18;;;;;;;;;;;4.70;99.90;;;;;;5052407;28;19926;-71
2021/01/03 13:05:45;;;;;;;;;;;4.70;99.90;;;;;;5046422;28;19925;-71
2021/01/03 13:08:11;;;;;;;;;;;4.60;99.90;;;;;;5049068;28;19925;-71
2021/01/03 13:10:37;;;;;;;;;;;4.60;99.90;;;;;;5052109;28;19986;-71
2021/01/03 13:13:03;;;;;;;;;;;4.60;99.90;;;;;;5052580;28;19989;-71
2021/01/03 13:15:30;;;;;;;;;;;4.60;99.90;;;;;;5052495;28;19938;-71
2021/01/03 13:17:57;;;;;;;;;;;4.60;99.90;;;;;;5052012;28;20027;-72
2021/01/03 13:20:23;;;;;;;;;;;4.50;99.90;;;;;;5052696;28;19978;-72
2021/01/03 13:22:49;;;;;;;;;;;4.60;99.90;;;;;;5040745;28;20359;-72
2021/01/03 13:25:15;;;;;;;;;;;4.60;99.90;;;;;;5052053;28;19977;-72
2021/01/03 13:27:42;;;;;;;;;;;4.60;99.90;;;;;;5051498;28;19971;-72
2021/01/03 13:30:08;;;;;;;;;;;4.50;99.90;;;;;;5050760;28;19925;-72
2021/01/03 13:32:35;;;;;;;;;;;4.50;99.90;;;;;;5049200;28;19925;-72
2021/01/03 13:35:02;;;;;;;;;;;4.60;99.90;;;;;;5052035;28;19935;-72
2021/01/03 13:37:28;;;;;;;;;;;4.60;99.90;;;;;;5051967;28;19925;-73
2021/01/03 13:39:54;;;;;;;;;;;4.60;99.90;;;;;;5051945;28;19935;-73
2021/01/03 13:42:20;;;;;;;;;;;4.60;99.90;;;;;;5052172;28;19935;-73
2021/01/03 13:44:47;;;;;;;;;;;4.60;99.90;;;;;;5054376;28;20262;-73
2021/01/03 13:47:13;;;;;;;;;;;4.50;99.90;;;;;;5055722;28;19925;-72
2021/01/03 13:49:39;;;;;;;;;;;4.60;99.90;;;;;;5055618;28;19935;-72
2021/01/03 13:52:06;;;;;;;;;;;4.60;99.90;;;;;;5055579;28;20228;-72
2021/01/03 13:54:32;;;;;;;;;;;4.60;99.90;;;;;;5056006;28;20350;-72
2021/01/03 13:56:58;;;;;;;;;;;4.60;99.90;;;;;;5055046;28;19933;-72
2021/01/03 13:59:25;;;;;;;;;;;4.60;99.90;;;;;;5055729;28;19924;-71
2021/01/03 14:01:51;;;;;;;;;;;4.60;99.90;;;;;;5055116;28;19925;-71
2021/01/03 14:04:17;;;;;;;;;;;4.60;99.90;;;;;;5055397;28;19924;-71
2021/01/03 14:06:43;;;;;;;;;;;4.60;99.90;;;;;;5049598;28;19924;-70
2021/01/03 14:09:10;;;;;;;;;;;4.60;99.90;;;;;;5055458;28;19924;-70
2021/01/03 14:11:37;;;;;;;;;;;4.60;99.90;;;;;;5055371;28;20305;-71
2021/01/03 14:14:03;;;;;;;;;;;4.70;99.90;;;;;;5055240;28;19978;-71
2021/01/03 14:16:30;;;;;;;;;;;4.70;99.90;;;;;;5055127;28;20406;-71
2021/01/03 14:18:57;;;;;;;;;;;4.70;99.90;;;;;;5055057;28;19971;-71
2021/01/03 14:21:25;;;;;;;;;;;4.70;99.90;;;;;;5051985;28;20391;-71
2021/01/03 14:23:51;;;;;;;;;;;4.70;99.90;;;;;;5047466;28;20055;-71
2021/01/03 14:26:18;;;;;;;;;;;4.70;99.90;;;;;;5050818;28;19985;-71
2021/01/03 14:28:44;;;;;;;;;;;4.80;99.90;;;;;;5055083;28;19925;-71
2021/01/03 14:31:21;;;;;;;;;;;4.70;99.90;;;;;;5050739;28;19935;-71
2021/01/03 14:33:48;;;;;;;;;;;4.70;99.90;;;;;;5054627;28;20015;-71
2021/01/03 14:36:14;;;;;;;;;;;4.70;99.90;;;;;;5055094;28;19935;-71
2021/01/03 14:38:40;;;;;;;;;;;4.70;99.90;;;;;;5054845;28;20016;-71